Time,TemperatureF,DewpointF,PressureIn,WindDirection,WindDirectionDegrees,WindSpeedMPH,WindSpeedGustMPH,Humidity,HourlyPrecipIn,Conditions,Clouds,dailyrainin,SoftwareType,DateUTC
2013-02-28 00:00:00,21.0,5.0,-100.00,ENE,62,7.0,13.0,49,0.00,,,0.00,,2013-02-28 09:00:00,
2013-02-28 00:32:00,21.0,5.0,-100.00,ENE,62,7.0,13.0,49,0.00,,,0.00,,2013-02-28 09:32:00,
2013-02-28 00:42:00,21.0,5.0,-100.00,ENE,62,7.0,13.0,49,0.00,,,0.00,,2013-02-28 09:42:00,
2013-02-28 00:52:00,21.0,5.0,-100.00,ENE,62,7.0,13.0,49,0.00,,,0.00,,2013-02-28 09:52:00,
2013-02-28 01:00:00,21.0,5.0,-100.00,ENE,59,7.0,14.0,49,0.00,,,0.00,,2013-02-28 10:00:00,
2013-02-28 01:32:00,21.0,5.0,-100.00,ENE,59,7.0,14.0,49,0.00,,,0.00,,2013-02-28 10:32:00,
2013-02-28 01:42:00,21.0,5.0,-100.00,ENE,59,7.0,14.0,49,0.00,,,0.00,,2013-02-28 10:42:00,
2013-02-28 01:52:00,21.0,5.0,-100.00,ENE,59,7.0,14.0,49,0.00,,,0.00,,2013-02-28 10:52:00,
2013-02-28 02:00:00,22.0,5.0,-100.00,ENE,67,8.0,13.0,48,-99.99,,,0.00,,2013-02-28 11:00:00,
2013-02-28 02:32:00,22.0,5.0,-100.00,ENE,67,8.0,13.0,48,-99.99,,,0.00,,2013-02-28 11:32:00,
2013-02-28 02:42:00,22.0,5.0,-100.00,ENE,67,8.0,13.0,48,-99.99,,,0.00,,2013-02-28 11:42:00,
2013-02-28 02:52:00,22.0,5.0,-100.00,ENE,67,8.0,13.0,48,-99.99,,,0.00,,2013-02-28 11:52:00,
2013-02-28 03:00:00,21.0,5.0,-100.00,ENE,60,6.0,13.0,49,-99.99,,,0.00,,2013-02-28 12:00:00,
2013-02-28 03:32:00,21.0,5.0,-100.00,ENE,60,6.0,13.0,49,-99.99,,,0.00,,2013-02-28 12:32:00,
2013-02-28 03:42:00,21.0,5.0,-100.00,ENE,60,6.0,13.0,49,-99.99,,,0.00,,2013-02-28 12:42:00,
2013-02-28 03:52:00,21.0,5.0,-100.00,ENE,60,6.0,13.0,49,-99.99,,,0.00,,2013-02-28 12:52:00,
2013-02-28 04:00:00,21.0,5.0,-100.00,ENE,61,7.0,13.0,49,-99.99,,,0.00,,2013-02-28 13:00:00,
2013-02-28 04:32:00,21.0,5.0,-100.00,ENE,61,7.0,13.0,49,-99.99,,,0.00,,2013-02-28 13:32:00,
2013-02-28 04:42:00,21.0,5.0,-100.00,ENE,61,7.0,13.0,49,-99.99,,,0.00,,2013-02-28 13:42:00,
2013-02-28 04:52:00,21.0,5.0,-100.00,ENE,61,7.0,13.0,49,-99.99,,,0.00,,2013-02-28 13:52:00,
2013-02-28 05:00:00,21.0,5.0,-100.00,ENE,63,7.0,13.0,49,-99.99,,,0.00,,2013-02-28 14:00:00,
2013-02-28 05:32:00,21.0,5.0,-100.00,ENE,63,7.0,13.0,49,-99.99,,,0.00,,2013-02-28 14:32:00,
2013-02-28 05:42:00,21.0,5.0,-100.00,ENE,63,7.0,13.0,49,-99.99,,,0.00,,2013-02-28 14:42:00,
2013-02-28 05:52:00,21.0,5.0,-100.00,ENE,63,7.0,13.0,49,-99.99,,,0.00,,2013-02-28 14:52:00,
2013-02-28 06:00:00,21.0,4.0,-100.00,ENE,61,8.0,14.0,47,-99.99,,,0.00,,2013-02-28 15:00:00,
2013-02-28 06:32:00,21.0,4.0,-100.00,ENE,61,8.0,14.0,47,-99.99,,,0.00,,2013-02-28 15:32:00,
2013-02-28 06:42:00,21.0,4.0,-100.00,ENE,61,8.0,14.0,47,-99.99,,,0.00,,2013-02-28 15:42:00,
2013-02-28 06:52:00,21.0,4.0,-100.00,ENE,61,8.0,14.0,47,-99.99,,,0.00,,2013-02-28 15:52:00,
2013-02-28 07:00:00,21.0,3.0,-100.00,ENE,58,6.0,13.0,46,-99.99,,,0.00,,2013-02-28 16:00:00,
2013-02-28 07:32:00,21.0,3.0,-100.00,ENE,58,6.0,13.0,46,-99.99,,,0.00,,2013-02-28 16:32:00,
2013-02-28 07:42:00,21.0,3.0,-100.00,ENE,58,6.0,13.0,46,-99.99,,,0.00,,2013-02-28 16:42:00,
2013-02-28 07:52:00,21.0,3.0,-100.00,ENE,58,6.0,13.0,46,-99.99,,,0.00,,2013-02-28 16:52:00,
2013-02-28 08:00:00,21.0,3.0,-100.00,ENE,62,7.0,12.0,45,-99.99,,,0.00,,2013-02-28 17:00:00,
2013-02-28 08:32:00,21.0,3.0,-100.00,ENE,62,7.0,12.0,45,-99.99,,,0.00,,2013-02-28 17:32:00,
2013-02-28 08:42:00,21.0,3.0,-100.00,ENE,62,7.0,12.0,45,-99.99,,,0.00,,2013-02-28 17:42:00,
2013-02-28 08:52:00,21.0,3.0,-100.00,ENE,62,7.0,12.0,45,-99.99,,,0.00,,2013-02-28 17:52:00,
2013-02-28 09:00:00,23.0,3.0,-100.00,ENE,67,6.0,12.0,42,-99.99,,,0.00,,2013-02-28 18:00:00,
2013-02-28 09:32:00,23.0,3.0,-100.00,ENE,67,6.0,12.0,42,-99.99,,,0.00,,2013-02-28 18:32:00,
2013-02-28 09:42:00,23.0,3.0,-100.00,ENE,67,6.0,12.0,42,-99.99,,,0.00,,2013-02-28 18:42:00,
2013-02-28 09:52:00,23.0,3.0,-100.00,ENE,67,6.0,12.0,42,-99.99,,,0.00,,2013-02-28 18:52:00,
2013-02-28 10:00:00,24.0,4.0,-100.00,ENE,65,6.0,12.0,41,-99.99,,,0.00,,2013-02-28 19:00:00,
2013-02-28 10:32:00,24.0,4.0,-100.00,ENE,65,6.0,12.0,41,-99.99,,,0.00,,2013-02-28 19:32:00,
2013-02-28 10:42:00,24.0,4.0,-100.00,ENE,65,6.0,12.0,41,-99.99,,,0.00,,2013-02-28 19:42:00,
2013-02-28 10:52:00,24.0,4.0,-100.00,ENE,65,6.0,12.0,41,-99.99,,,0.00,,2013-02-28 19:52:00,
2013-02-28 11:32:00,30.0,4.0,-100.00,ENE,78,6.0,12.0,33,0.00,,,0.00,,2013-02-28 20:32:00,
2013-02-28 12:00:00,31.0,5.0,-100.00,ENE,78,4.0,11.0,33,-99.99,,,0.00,,2013-02-28 21:00:00,
2013-02-28 12:32:00,31.0,5.0,-100.00,ENE,78,4.0,11.0,33,-99.99,,,0.00,,2013-02-28 21:32:00,
2013-02-28 12:42:00,31.0,5.0,-100.00,ENE,78,4.0,11.0,33,-99.99,,,0.00,,2013-02-28 21:42:00,
2013-02-28 12:52:00,31.0,5.0,-100.00,ENE,78,4.0,11.0,33,-99.99,,,0.00,,2013-02-28 21:52:00,
2013-02-28 13:32:00,35.0,6.0,-100.00,ENE,72,3.0,13.0,29,-99.99,,,0.04,,2013-02-28 22:32:00,
2013-02-28 13:42:00,35.0,6.0,-100.00,ENE,72,3.0,13.0,29,-99.99,,,0.04,,2013-02-28 22:42:00,
2013-02-28 14:00:00,34.0,6.0,-100.00,ENE,75,2.0,9.0,30,-99.99,,,0.09,,2013-02-28 23:00:00,
2013-02-28 14:32:00,34.0,6.0,-100.00,ENE,75,2.0,9.0,30,-99.99,,,0.09,,2013-02-28 23:32:00,
2013-02-28 14:42:00,34.0,6.0,-100.00,ENE,75,2.0,9.0,30,-99.99,,,0.09,,2013-02-28 23:42:00,
2013-02-28 14:52:00,34.0,6.0,-100.00,ENE,75,2.0,9.0,30,-99.99,,,0.09,,2013-02-28 23:52:00,
2013-02-28 15:00:00,30.0,3.0,-100.00,NE,44,3.0,7.0,32,-99.99,,,0.10,,2013-03-01 00:00:00,
2013-02-28 15:32:00,30.0,3.0,-100.00,NE,44,3.0,7.0,32,-99.99,,,0.10,,2013-03-01 00:32:00,
2013-02-28 15:42:00,30.0,3.0,-100.00,NE,44,3.0,7.0,32,-99.99,,,0.10,,2013-03-01 00:42:00,
2013-02-28 15:52:00,30.0,3.0,-100.00,NE,44,3.0,7.0,32,-99.99,,,0.10,,2013-03-01 00:52:00,
2013-02-28 16:00:00,29.0,3.0,-100.00,NNE,33,2.0,6.0,33,-99.99,,,0.10,,2013-03-01 01:00:00,
2013-02-28 16:32:00,29.0,3.0,-100.00,NNE,33,2.0,6.0,33,-99.99,,,0.10,,2013-03-01 01:32:00,
2013-02-28 16:42:00,29.0,3.0,-100.00,NNE,33,2.0,6.0,33,-99.99,,,0.10,,2013-03-01 01:42:00,
2013-02-28 16:52:00,29.0,3.0,-100.00,NNE,33,2.0,6.0,33,-99.99,,,0.10,,2013-03-01 01:52:00,
2013-02-28 17:00:00,26.0,4.0,-100.00,East,91,1.0,5.0,38,0.00,,,0.10,,2013-03-01 02:00:00,
2013-02-28 17:32:00,26.0,4.0,-100.00,East,91,1.0,5.0,38,0.00,,,0.10,,2013-03-01 02:32:00,
2013-02-28 17:42:00,26.0,4.0,-100.00,East,91,1.0,5.0,38,0.00,,,0.10,,2013-03-01 02:42:00,
2013-02-28 17:52:00,26.0,4.0,-100.00,East,91,1.0,5.0,38,0.00,,,0.10,,2013-03-01 02:52:00,
2013-02-28 18:00:00,22.0,2.0,-100.00,NE,46,3.0,5.0,42,-99.99,,,0.10,,2013-03-01 03:00:00,
2013-02-28 18:32:00,22.0,2.0,-100.00,NE,46,3.0,5.0,42,-99.99,,,0.10,,2013-03-01 03:32:00,
2013-02-28 18:42:00,22.0,2.0,-100.00,NE,46,3.0,5.0,42,-99.99,,,0.10,,2013-03-01 03:42:00,
2013-02-28 18:52:00,22.0,2.0,-100.00,NE,46,3.0,5.0,42,-99.99,,,0.10,,2013-03-01 03:52:00,
2013-02-28 19:00:00,21.0,2.0,-100.00,NE,49,2.0,5.0,44,0.00,,,0.10,,2013-03-01 04:00:00,
2013-02-28 19:32:00,21.0,2.0,-100.00,NE,49,2.0,5.0,44,0.00,,,0.10,,2013-03-01 04:32:00,
2013-02-28 19:42:00,21.0,2.0,-100.00,NE,49,2.0,5.0,44,0.00,,,0.10,,2013-03-01 04:42:00,
2013-02-28 19:52:00,21.0,2.0,-100.00,NE,49,2.0,5.0,44,0.00,,,0.10,,2013-03-01 04:52:00,
2013-02-28 20:00:00,21.0,3.0,-100.00,NE,42,2.0,5.0,45,0.00,,,0.10,,2013-03-01 05:00:00,
2013-02-28 20:33:00,21.0,3.0,-100.00,NE,42,2.0,5.0,45,0.00,,,0.10,,2013-03-01 05:33:00,
2013-02-28 20:42:00,21.0,3.0,-100.00,NE,42,2.0,5.0,45,0.00,,,0.10,,2013-03-01 05:42:00,
2013-02-28 20:52:00,21.0,3.0,-100.00,NE,42,2.0,5.0,45,0.00,,,0.10,,2013-03-01 05:52:00,
2013-02-28 21:00:00,20.0,2.0,-100.00,NE,41,2.0,5.0,46,0.00,,,0.10,,2013-03-01 06:00:00,
2013-02-28 21:32:00,20.0,2.0,-100.00,NE,41,2.0,5.0,46,0.00,,,0.10,,2013-03-01 06:32:00,
2013-02-28 21:42:00,20.0,2.0,-100.00,NE,41,2.0,5.0,46,0.00,,,0.10,,2013-03-01 06:42:00,
2013-02-28 21:52:00,20.0,2.0,-100.00,NE,41,2.0,5.0,46,0.00,,,0.10,,2013-03-01 06:52:00,
2013-02-28 22:00:00,22.0,4.0,-100.00,NW,321,1.0,4.0,45,0.00,,,0.10,,2013-03-01 07:00:00,
2013-02-28 22:32:00,22.0,4.0,-100.00,NW,321,1.0,4.0,45,0.00,,,0.10,,2013-03-01 07:32:00,
2013-02-28 22:42:00,22.0,4.0,-100.00,NW,321,1.0,4.0,45,0.00,,,0.10,,2013-03-01 07:42:00,
2013-02-28 22:52:00,22.0,4.0,-100.00,NW,321,1.0,4.0,45,0.00,,,0.10,,2013-03-01 07:52:00,
2013-02-28 23:00:00,22.0,3.0,-100.00,North,351,2.0,3.0,44,0.00,,,0.10,,2013-03-01 08:00:00,
2013-02-28 23:32:00,22.0,3.0,-100.00,North,351,2.0,3.0,44,0.00,,,0.10,,2013-03-01 08:32:00,
2013-02-28 23:43:00,22.0,3.0,-100.00,North,351,2.0,3.0,44,0.00,,,0.10,,2013-03-01 08:43:00,
2013-02-28 23:53:00,22.0,3.0,-100.00,North,351,2.0,3.0,44,0.00,,,0.10,,2013-03-01 08:53:00,